Time;durP1;ratioP1;P1;durP2;ratioP2;P2;SDS_P1;SDS_P2;PMS_P1;PMS_P2;Temp;Humidity;BMP_temperature;BMP_pressure;BME280_temperature;BME280_humidity;BME280_pressure;Samples;Min_cycle;Max_cycle;Signal;HPM_P1;HPM_P2
2023/06/05 00:01:13;;;;;;;3.20;1.60;;;14.60;1.00;;;;;;5053924;28;20175;-79
2023/06/05 00:03:39;;;;;;;5.57;1.60;;;14.60;1.00;;;;;;5053218;28;20199;-78
2023/06/05 00:06:04;;;;;;;5.77;2.10;;;14.60;55.00;;;;;;5052563;28;20210;-78
2023/06/05 00:08:30;;;;;;;3.77;1.60;;;14.60;4.60;;;;;;5053883;28;20246;-79
2023/06/05 00:10:56;;;;;;;7.80;1.80;;;14.80;48.40;;;;;;5056863;28;20699;-78
2023/06/05 00:13:21;;;;;;;4.63;1.80;;;14.60;99.90;;;;;;5056845;28;20237;-79
2023/06/05 00:15:47;;;;;;;2.37;1.93;;;14.70;99.90;;;;;;5058025;28;20264;-78
2023/06/05 00:18:14;;;;;;;5.30;1.83;;;14.60;99.90;;;;;;5056475;28;20184;-78
2023/06/05 00:20:39;;;;;;;4.87;2.13;;;14.70;99.90;;;;;;5057878;28;20179;-79
2023/06/05 00:23:05;;;;;;;4.07;1.83;;;14.70;99.90;;;;;;5057099;28;20199;-78
2023/06/05 00:25:31;;;;;;;4.00;1.70;;;14.70;99.90;;;;;;5058043;28;20180;-78
2023/06/05 00:27:56;;;;;;;3.17;1.90;;;14.70;99.90;;;;;;5066786;28;20179;-77
2023/06/05 00:30:22;;;;;;;4.00;1.70;;;14.70;99.90;;;;;;5064809;28;20209;-78
2023/06/05 00:32:48;;;;;;;3.77;1.63;;;14.60;99.90;;;;;;5061907;28;20200;-77
2023/06/05 00:35:13;;;;;;;4.80;2.00;;;14.60;99.90;;;;;;5048904;28;20180;-78
2023/06/05 00:37:39;;;;;;;4.03;1.80;;;14.60;1.00;;;;;;5046781;28;20184;-77
2023/06/05 00:40:06;;;;;;;3.80;2.10;;;14.60;99.90;;;;;;5046327;28;20180;-77
2023/06/05 00:42:31;;;;;;;3.60;1.87;;;14.60;1.00;;;;;;5052095;28;20290;-79
2023/06/05 00:44:57;;;;;;;6.40;1.67;;;14.60;1.00;;;;;;5054003;28;20192;-79
2023/06/05 00:47:22;;;;;;;4.30;1.57;;;14.50;1.00;;;;;;5043627;28;20235;-77
2023/06/05 00:49:49;;;;;;;4.33;2.10;;;14.50;1.00;;;;;;5061199;28;20211;-77
2023/06/05 00:52:15;;;;;;;5.97;2.07;;;14.50;75.10;;;;;;5061588;28;20621;-78
2023/06/05 00:54:41;;;;;;;4.10;2.00;;;14.50;82.20;;;;;;5061019;28;20294;-81
2023/06/05 00:57:08;;;;;;;3.07;2.03;;;14.50;29.60;;;;;;5064172;28;20168;-79
2023/06/05 00:59:36;;;;;;;8.00;2.07;;;14.50;99.90;;;;;;5060542;28;20184;-79
2023/06/05 01:02:02;;;;;;;5.10;2.00;;;14.40;99.90;;;;;;5059665;28;20199;-79
2023/06/05 01:04:28;;;;;;;3.67;2.00;;;14.40;1.00;;;;;;5060558;28;20172;-80
2023/06/05 01:06:57;;;;;;;6.00;1.97;;;14.40;1.00;;;;;;5059540;28;20573;-79
2023/06/05 01:09:25;;;;;;;3.83;1.73;;;14.40;1.00;;;;;;5064126;28;20262;-78
2023/06/05 01:11:55;;;;;;;4.47;2.20;;;14.30;1.00;;;;;;5065722;28;20274;-78
2023/06/05 01:14:33;;;;;;;5.73;1.80;;;14.40;1.00;;;;;;5065104;28;20648;-78
2023/06/05 01:17:02;;;;;;;5.83;2.20;;;14.30;1.00;;;;;;5059251;28;20191;-79
2023/06/05 01:19:28;;;;;;;4.50;1.90;;;14.30;1.00;;;;;;5055576;28;20180;-79
2023/06/05 01:21:58;;;;;;;3.10;1.80;;;14.30;1.00;;;;;;5057364;28;20168;-79
2023/06/05 01:24:25;;;;;;;4.03;2.20;;;14.30;99.90;;;;;;5057481;28;20179;-79
2023/06/05 01:27:03;;;;;;;4.93;2.20;;;14.20;1.00;;;;;;5056395;28;20282;-79
2023/06/05 01:29:48;;;;;;;5.33;1.97;;;14.30;99.90;;;;;;5055368;28;20175;-79
2023/06/05 01:32:21;;;;;;;2.73;1.87;;;14.30;99.90;;;;;;5057789;28;20191;-79
2023/06/05 01:34:48;;;;;;;4.00;1.90;;;14.20;99.90;;;;;;5055537;28;20663;-79
2023/06/05 01:37:18;;;;;;;5.37;2.10;;;14.20;99.90;;;;;;5055546;28;20229;-80
2023/06/05 01:39:46;;;;;;;4.40;1.90;;;14.20;1.00;;;;;;5056740;28;20206;-79
2023/06/05 01:42:13;;;;;;;4.13;2.20;;;14.20;1.00;;;;;;5053418;28;20211;-79
2023/06/05 01:44:40;;;;;;;5.93;2.20;;;14.20;99.90;;;;;;5043968;28;20639;-79
2023/06/05 01:47:07;;;;;;;5.30;2.40;;;14.10;99.90;;;;;;5056923;28;20512;-80
2023/06/05 01:49:33;;;;;;;5.20;2.67;;;14.10;1.00;;;;;;5056923;28;20226;-78
2023/06/05 01:51:59;;;;;;;4.03;1.93;;;14.00;1.00;;;;;;5055816;28;20171;-80
2023/06/05 01:54:26;;;;;;;6.40;2.10;;;14.00;1.00;;;;;;5052476;28;20177;-78
2023/06/05 01:56:52;;;;;;;4.37;2.30;;;14.00;1.00;;;;;;5037135;28;20174;-79
2023/06/05 01:59:18;;;;;;;5.47;2.13;;;14.00;1.00;;;;;;5035336;28;20560;-78
2023/06/05 02:01:44;;;;;;;3.33;1.90;;;13.90;1.00;;;;;;5034825;28;20180;-79
2023/06/05 02:04:10;;;;;;;4.30;1.70;;;13.90;1.00;;;;;;5051305;28;20183;-79
2023/06/05 02:06:42;;;;;;;4.40;2.23;;;13.90;99.90;;;;;;5056843;28;20183;-79
2023/06/05 02:09:10;;;;;;;2.77;2.07;;;13.80;99.90;;;;;;5055122;28;20176;-79
2023/06/05 02:11:37;;;;;;;4.40;2.13;;;13.80;1.00;;;;;;5055962;28;20207;-79
2023/06/05 02:14:04;;;;;;;6.17;2.27;;;13.80;1.00;;;;;;5055413;28;20206;-79
2023/06/05 02:16:30;;;;;;;4.43;2.23;;;13.70;9.70;;;;;;5056853;28;20172;-81
2023/06/05 02:19:00;;;;;;;7.60;2.30;;;13.70;1.00;;;;;;5056361;28;20195;-79
2023/06/05 02:21:26;;;;;;;4.30;2.40;;;13.70;1.00;;;;;;5056109;28;20175;-79
2023/06/05 02:23:53;;;;;;;4.17;2.30;;;13.60;1.00;;;;;;5055243;28;20207;-79
2023/06/05 02:26:19;;;;;;;3.27;1.77;;;13.60;1.00;;;;;;5055986;28;20174;-79
2023/06/05 02:28:45;;;;;;;3.23;2.00;;;13.50;1.00;;;;;;5055833;28;20164;-78
2023/06/05 02:31:16;;;;;;;4.37;2.40;;;13.50;1.00;;;;;;5055645;28;20607;-78
2023/06/05 02:33:42;;;;;;;4.80;2.57;;;13.50;1.00;;;;;;5054329;28;20210;-78
2023/06/05 02:36:07;;;;;;;3.53;2.30;;;13.40;1.00;;;;;;5055410;28;20170;-78
2023/06/05 02:38:33;;;;;;;4.20;2.30;;;13.40;1.00;;;;;;5054359;28;20171;-79
2023/06/05 02:40:59;;;;;;;3.13;2.00;;;13.40;99.90;;;;;;5055161;28;20189;-79
2023/06/05 02:43:25;;;;;;;3.53;2.30;;;13.30;99.90;;;;;;5055396;28;20215;-79
2023/06/05 02:45:50;;;;;;;3.93;2.17;;;13.30;21.20;;;;;;5054188;28;20373;-77
2023/06/05 02:48:16;;;;;;;3.73;2.13;;;13.30;53.00;;;;;;5054223;28;20203;-79
2023/06/05 02:50:42;;;;;;;5.00;1.90;;;13.20;99.90;;;;;;5055812;28;20241;-79
2023/06/05 02:53:07;;;;;;;6.40;2.27;;;13.20;99.90;;;;;;5053617;28;20196;-79
2023/06/05 02:55:33;;;;;;;4.03;2.50;;;13.20;99.90;;;;;;5055258;28;20349;-79
2023/06/05 02:57:58;;;;;;;5.50;2.10;;;13.20;77.70;;;;;;5055001;28;20250;-79
2023/06/05 03:00:25;;;;;;;4.40;2.33;;;13.10;65.90;;;;;;5054056;28;20267;-79
2023/06/05 03:02:51;;;;;;;7.63;2.27;;;13.10;1.00;;;;;;5054551;28;20199;-78
2023/06/05 03:05:24;;;;;;;5.10;2.20;;;13.10;1.00;;;;;;5053750;28;20194;-79
2023/06/05 03:07:52;;;;;;;4.70;2.00;;;13.00;1.00;;;;;;5054909;28;20158;-79
2023/06/05 03:10:19;;;;;;;4.40;2.40;;;13.00;1.00;;;;;;5053509;28;20210;-79
2023/06/05 03:12:44;;;;;;;4.27;2.27;;;13.00;1.00;;;;;;5053756;28;20265;-79
2023/06/05 03:15:11;;;;;;;4.47;2.13;;;13.00;99.90;;;;;;5054839;28;20637;-79
2023/06/05 03:17:37;;;;;;;2.97;2.17;;;13.00;99.90;;;;;;5053644;28;20179;-79
2023/06/05 03:20:03;;;;;;;6.37;2.43;;;12.90;99.90;;;;;;5054468;28;20182;-79
2023/06/05 03:22:30;;;;;;;3.93;1.97;;;12.90;1.00;;;;;;5054149;28;20191;-76
2023/06/05 03:24:55;;;;;;;6.17;1.93;;;12.80;1.00;;;;;;5054699;28;20167;-79
2023/06/05 03:27:21;;;;;;;4.50;2.40;;;12.80;1.00;;;;;;5053120;28;20536;-79
2023/06/05 03:29:46;;;;;;;4.97;2.37;;;12.80;1.00;;;;;;5055574;28;20676;-79
2023/06/05 03:32:12;;;;;;;3.40;2.20;;;12.80;1.00;;;;;;5054733;28;20199;-78
2023/06/05 03:34:38;;;;;;;4.13;2.60;;;12.70;1.00;;;;;;5054228;28;20183;-79
2023/06/05 03:37:04;;;;;;;6.73;2.50;;;12.70;14.20;;;;;;5055233;28;20198;-79
2023/06/05 03:39:29;;;;;;;5.07;2.30;;;12.70;1.00;;;;;;5053876;28;20180;-77
2023/06/05 03:41:55;;;;;;;3.63;2.40;;;12.70;1.00;;;;;;5053929;28;20198;-79
2023/06/05 03:44:20;;;;;;;5.47;2.70;;;12.70;1.00;;;;;;5053300;28;20182;-78
2023/06/05 03:46:46;;;;;;;3.97;2.10;;;12.70;99.90;;;;;;5053655;28;20175;-79
2023/06/05 03:49:12;;;;;;;3.50;2.50;;;12.70;1.00;;;;;;5054992;28;20184;-80
2023/06/05 03:51:39;;;;;;;4.10;2.20;;;12.70;1.00;;;;;;5055497;28;20191;-78
2023/06/05 03:54:05;;;;;;;6.50;2.83;;;12.70;99.90;;;;;;5053915;28;20746;-79
2023/06/05 03:56:34;;;;;;;3.07;2.13;;;12.70;35.10;;;;;;5052919;28;20599;-79
2023/06/05 03:59:08;;;;;;;7.53;3.03;;;12.60;1.00;;;;;;5054232;28;20255;-79
2023/06/05 04:01:36;;;;;;;3.43;2.63;;;12.60;41.50;;;;;;5054032;28;20643;-79
2023/06/05 04:04:04;;;;;;;4.43;2.20;;;12.60;99.90;;;;;;5051917;28;20223;-79
2023/06/05 04:06:32;;;;;;;8.27;2.73;;;12.60;99.90;;;;;;5045095;28;20184;-77
2023/06/05 04:08:58;;;;;;;6.77;2.63;;;12.60;99.90;;;;;;5053922;28;20179;-79
2023/06/05 04:11:26;;;;;;;6.33;3.07;;;12.60;99.90;;;;;;5052848;28;20209;-78
2023/06/05 04:13:55;;;;;;;4.87;2.43;;;12.60;99.90;;;;;;5054169;28;20187;-78
2023/06/05 04:16:20;;;;;;;4.23;2.63;;;12.60;99.90;;;;;;5053948;28;20245;-79
2023/06/05 04:18:46;;;;;;;3.63;2.40;;;12.60;94.30;;;;;;5052194;28;20179;-78
2023/06/05 04:21:11;;;;;;;3.80;2.30;;;12.60;99.90;;;;;;5052804;28;20176;-78
2023/06/05 04:23:37;;;;;;;4.57;3.00;;;12.60;99.90;;;;;;5053295;28;20670;-79
2023/06/05 04:26:02;;;;;;;3.93;2.63;;;12.60;99.90;;;;;;5054367;28;20206;-79
2023/06/05 04:28:29;;;;;;;5.33;3.17;;;12.60;99.90;;;;;;5052184;28;20210;-78
2023/06/05 04:30:55;;;;;;;6.07;2.80;;;12.60;99.90;;;;;;5053807;28;20195;-78
2023/06/05 04:33:21;;;;;;;3.53;2.30;;;12.60;99.90;;;;;;5052027;28;20195;-79
2023/06/05 04:35:46;;;;;;;6.90;2.97;;;12.60;1.00;;;;;;5053984;28;20179;-79
2023/06/05 04:38:12;;;;;;;4.67;3.03;;;12.60;99.90;;;;;;5051709;28;20176;-79
2023/06/05 04:40:38;;;;;;;6.00;2.90;;;12.60;99.90;;;;;;5053539;28;20168;-79
2023/06/05 04:43:03;;;;;;;6.50;2.70;;;12.60;1.00;;;;;;5052542;28;20195;-79
2023/06/05 04:45:29;;;;;;;4.53;2.90;;;12.60;1.00;;;;;;5055491;28;20206;-78
2023/06/05 04:47:55;;;;;;;3.77;2.60;;;12.60;1.00;;;;;;5053132;28;20187;-79
2023/06/05 04:50:24;;;;;;;7.27;3.50;;;12.60;99.90;;;;;;5053199;28;20238;-79
2023/06/05 04:52:50;;;;;;;5.00;2.90;;;12.60;99.90;;;;;;5055297;28;20194;-79
2023/06/05 04:55:16;;;;;;;4.93;2.90;;;12.60;99.90;;;;;;5054696;28;20176;-79
2023/06/05 04:57:41;;;;;;;3.97;2.73;;;12.70;99.90;;;;;;5060593;28;20195;-78
2023/06/05 05:00:07;;;;;;;4.53;2.90;;;12.70;15.50;;;;;;5071372;28;20691;-77
2023/06/05 05:02:33;;;;;;;3.93;3.20;;;12.70;99.90;;;;;;5070865;28;20196;-76
2023/06/05 05:04:58;;;;;;;5.40;2.90;;;12.70;1.00;;;;;;5058426;28;20183;-79
2023/06/05 05:07:26;;;;;;;4.33;3.30;;;12.80;1.00;;;;;;5054413;28;20199;-79
2023/06/05 05:09:51;;;;;;;5.73;3.50;;;12.80;1.00;;;;;;5035825;28;20196;-78
2023/06/05 05:12:17;;;;;;;4.27;2.70;;;12.90;1.00;;;;;;5037294;28;20203;-79
2023/06/05 05:14:44;;;;;;;4.67;3.00;;;12.90;1.00;;;;;;5036757;28;20172;-78
2023/06/05 05:17:10;;;;;;;6.40;3.27;;;12.90;1.00;;;;;;5036191;28;20164;-77
2023/06/05 05:19:39;;;;;;;7.73;3.30;;;12.90;1.00;;;;;;5054166;28;20183;-79
2023/06/05 05:22:05;;;;;;;6.50;3.30;;;12.90;99.90;;;;;;5055310;28;20195;-79
2023/06/05 05:24:30;;;;;;;11.20;3.33;;;13.00;99.90;;;;;;5056854;28;20536;-79
2023/06/05 05:26:56;;;;;;;7.63;3.33;;;13.00;1.00;;;;;;5055328;28;20171;-79
2023/06/05 05:29:21;;;;;;;5.57;2.90;;;13.10;1.00;;;;;;5055388;28;20183;-79
2023/06/05 05:31:47;;;;;;;5.87;3.30;;;13.10;86.30;;;;;;5056564;28;20168;-79
2023/06/05 05:34:12;;;;;;;7.53;3.20;;;13.10;1.00;;;;;;5054886;28;20472;-79
2023/06/05 05:36:39;;;;;;;8.13;3.73;;;13.10;99.90;;;;;;5055377;28;20178;-79
2023/06/05 05:39:05;;;;;;;4.40;3.10;;;13.20;1.00;;;;;;5056156;28;20259;-79
2023/06/05 05:41:30;;;;;;;5.73;3.20;;;13.20;99.90;;;;;;5056405;28;20178;-80
2023/06/05 05:43:56;;;;;;;8.47;3.83;;;13.20;1.00;;;;;;5054939;28;20211;-79
2023/06/05 05:46:21;;;;;;;6.43;3.50;;;13.40;1.00;;;;;;5054686;28;20172;-79
2023/06/05 05:48:47;;;;;;;3.27;2.90;;;13.40;99.90;;;;;;5056258;28;20182;-80
2023/06/05 05:51:12;;;;;;;8.23;2.90;;;13.40;99.90;;;;;;5054533;28;20562;-80
2023/06/05 05:53:38;;;;;;;5.23;3.50;;;13.40;1.00;;;;;;5054156;28;20207;-78
2023/06/05 05:56:04;;;;;;;6.60;3.03;;;13.50;99.90;;;;;;5056315;28;20187;-79
2023/06/05 05:58:31;;;;;;;5.23;3.30;;;13.50;99.90;;;;;;5054606;28;20203;-80
2023/06/05 06:00:57;;;;;;;5.97;3.13;;;13.60;99.90;;;;;;5056226;28;20187;-79
2023/06/05 06:03:23;;;;;;;6.30;3.30;;;13.60;99.90;;;;;;5053928;28;20214;-80
2023/06/05 06:05:49;;;;;;;4.93;3.03;;;13.70;1.00;;;;;;5056096;28;20640;-79
2023/06/05 06:08:15;;;;;;;4.90;3.43;;;13.70;99.90;;;;;;5053835;28;20249;-78
2023/06/05 06:10:40;;;;;;;8.90;3.90;;;13.80;78.90;;;;;;5056493;28;20207;-79
2023/06/05 06:13:06;;;;;;;8.13;3.93;;;13.90;2.90;;;;;;5055592;28;20320;-79
2023/06/05 06:15:32;;;;;;;6.97;3.87;;;13.90;29.30;;;;;;5055213;28;20191;-79
2023/06/05 06:17:59;;;;;;;5.63;3.37;;;13.90;11.20;;;;;;5055258;28;20176;-79
2023/06/05 06:20:25;;;;;;;5.60;3.87;;;14.00;1.00;;;;;;5056494;28;20192;-80
2023/06/05 06:22:50;;;;;;;9.33;3.90;;;14.00;99.90;;;;;;5056722;28;20203;-78
2023/06/05 06:25:17;;;;;;;8.87;3.50;;;14.10;1.00;;;;;;5054263;28;20190;-79
2023/06/05 06:27:45;;;;;;;3.43;3.00;;;14.10;92.30;;;;;;5054035;28;20652;-79
2023/06/05 06:30:12;;;;;;;4.00;3.23;;;14.20;1.00;;;;;;5053603;28;20303;-79
2023/06/05 06:32:37;;;;;;;6.53;3.23;;;14.30;99.90;;;;;;5052513;28;20196;-79
2023/06/05 06:35:03;;;;;;;5.03;2.93;;;14.30;1.00;;;;;;5053987;28;20638;-79
2023/06/05 06:37:30;;;;;;;5.87;3.40;;;14.40;1.00;;;;;;5055288;28;20168;-80
2023/06/05 06:39:56;;;;;;;6.93;3.83;;;14.40;1.00;;;;;;5053617;28;20179;-79
2023/06/05 06:42:21;;;;;;;5.87;3.73;;;14.50;1.00;;;;;;5052189;28;20207;-79
2023/06/05 06:44:47;;;;;;;5.33;3.10;;;14.60;1.00;;;;;;5037030;28;20183;-79
2023/06/05 06:47:12;;;;;;;5.77;3.47;;;14.70;1.00;;;;;;5035027;28;20583;-80
2023/06/05 06:49:39;;;;;;;8.03;3.73;;;14.70;99.90;;;;;;5034878;28;20199;-77
2023/06/05 06:52:05;;;;;;;6.67;3.53;;;14.80;40.40;;;;;;5034754;28;20246;-80
2023/06/05 06:54:31;;;;;;;5.27;3.53;;;14.90;89.40;;;;;;5048512;28;20177;-80
2023/06/05 06:56:57;;;;;;;9.00;3.90;;;15.10;1.00;;;;;;5036242;28;20172;-80
2023/06/05 06:59:22;;;;;;;7.60;4.10;;;15.00;1.00;;;;;;5033456;28;20172;-79
2023/06/05 07:02:10;;;;;;;6.57;3.50;;;15.10;99.90;;;;;;5035123;28;20353;-78
2023/06/05 07:04:36;;;;;;;8.23;4.33;;;15.20;99.90;;;;;;5065874;28;20179;-79
2023/06/05 07:07:02;;;;;;;7.27;3.97;;;15.20;99.90;;;;;;5033564;28;20305;-80
2023/06/05 07:09:28;;;;;;;6.43;3.80;;;15.30;99.90;;;;;;5034901;28;20168;-79
2023/06/05 07:11:56;;;;;;;6.47;3.80;;;15.40;99.90;;;;;;5033428;28;20172;-79
2023/06/05 07:14:22;;;;;;;6.17;4.03;;;15.60;99.90;;;;;;5052193;28;20233;-79
2023/06/05 07:16:48;;;;;;;8.43;4.03;;;15.50;1.00;;;;;;5053087;28;20180;-77
2023/06/05 07:19:15;;;;;;;8.10;3.70;;;15.60;1.00;;;;;;5054818;28;20171;-80
2023/06/05 07:21:41;;;;;;;8.17;4.07;;;15.60;1.00;;;;;;5054156;28;20553;-80
2023/06/05 07:24:07;;;;;;;8.77;3.90;;;15.70;99.90;;;;;;5053356;28;20211;-80
2023/06/05 07:26:33;;;;;;;4.87;3.37;;;15.80;1.00;;;;;;5054394;28;20226;-79
2023/06/05 07:28:59;;;;;;;7.70;3.87;;;15.90;1.00;;;;;;5052726;28;20183;-80
2023/06/05 07:31:25;;;;;;;7.33;3.67;;;16.00;99.90;;;;;;5052644;28;20203;-80
2023/06/05 07:33:51;;;;;;;6.07;4.33;;;16.00;99.90;;;;;;5052132;28;20214;-79
2023/06/05 07:36:17;;;;;;;6.17;3.67;;;16.10;1.00;;;;;;5054488;28;20180;-79
2023/06/05 07:38:42;;;;;;;6.00;3.97;;;16.20;1.00;;;;;;5043742;28;20216;-79
2023/06/05 07:41:10;;;;;;;7.80;3.80;;;16.20;1.00;;;;;;5034496;28;20213;-80
2023/06/05 07:43:39;;;;;;;6.93;3.53;;;16.30;99.90;;;;;;5036284;28;20215;-80
2023/06/05 07:46:05;;;;;;;6.60;3.87;;;16.40;1.00;;;;;;5034725;28;20233;-80
2023/06/05 07:48:30;;;;;;;6.33;3.60;;;16.50;1.00;;;;;;5034502;28;20179;-79
2023/06/05 07:50:59;;;;;;;9.53;3.80;;;16.60;99.90;;;;;;5032923;28;20211;-79
2023/06/05 07:53:24;;;;;;;10.07;3.50;;;16.70;1.00;;;;;;5037150;28;20234;-80
2023/06/05 07:55:51;;;;;;;9.70;3.63;;;16.70;99.90;;;;;;5034284;28;20176;-79
2023/06/05 07:58:18;;;;;;;4.63;3.17;;;16.80;1.00;;;;;;5034389;28;20279;-80
2023/06/05 08:00:47;;;;;;;6.00;3.50;;;16.90;86.50;;;;;;5033389;28;20274;-80
2023/06/05 08:03:19;;;;;;;6.63;3.00;;;16.90;1.00;;;;;;5042893;28;20231;-78
2023/06/05 08:05:46;;;;;;;6.17;3.10;;;17.10;99.90;;;;;;5053015;28;20190;-80
2023/06/05 08:08:11;;;;;;;5.13;3.07;;;17.10;99.90;;;;;;5054485;28;20213;-80
2023/06/05 08:10:37;;;;;;;5.10;3.50;;;17.20;1.00;;;;;;5054303;28;20203;-80
2023/06/05 08:13:02;;;;;;;6.57;3.37;;;17.30;1.00;;;;;;5053525;28;20576;-80
2023/06/05 08:15:28;;;;;;;6.10;3.50;;;17.40;1.00;;;;;;5055249;28;20712;-80
2023/06/05 08:17:54;;;;;;;6.80;3.17;;;17.50;1.00;;;;;;5053162;28;20251;-80
2023/06/05 08:20:20;;;;;;;7.07;3.23;;;17.50;1.00;;;;;;5053197;28;20595;-79
2023/06/05 08:22:45;;;;;;;6.17;3.50;;;17.70;99.90;;;;;;5053952;28;20204;-80
2023/06/05 08:25:11;;;;;;;5.40;3.23;;;17.80;99.90;;;;;;5053200;28;20184;-80
2023/06/05 08:27:36;;;;;;;8.27;3.83;;;17.90;99.90;;;;;;5055207;28;20205;-80
2023/06/05 08:30:03;;;;;;;6.87;3.63;;;18.10;1.00;;;;;;5053378;28;20257;-80
2023/06/05 08:32:30;;;;;;;9.33;3.33;;;18.00;1.00;;;;;;5058437;28;20230;-80
2023/06/05 08:34:55;;;;;;;13.70;3.60;;;18.30;1.00;;;;;;5058770;28;20672;-80
2023/06/05 08:37:21;;;;;;;6.03;3.70;;;18.20;1.00;;;;;;5058665;28;20245;-80
2023/06/05 08:39:46;;;;;;;7.00;3.53;;;18.30;1.00;;;;;;5057800;28;20637;-80
2023/06/05 08:42:17;;;;;;;7.77;3.23;;;18.40;1.00;;;;;;5058543;28;20195;-80
2023/06/05 08:44:43;;;;;;;6.23;3.37;;;18.50;1.00;;;;;;5060372;28;20626;-80
2023/06/05 08:47:11;;;;;;;7.77;3.57;;;18.50;1.00;;;;;;5073676;28;20620;-78
2023/06/05 08:49:40;;;;;;;7.20;3.37;;;18.70;1.00;;;;;;5073758;28;20192;-79
2023/06/05 08:52:07;;;;;;;6.67;3.70;;;18.80;1.00;;;;;;5068840;28;20199;-80
2023/06/05 08:54:38;;;;;;;4.60;2.70;;;18.80;99.90;;;;;;5055528;28;20183;-80
2023/06/05 08:57:06;;;;;;;5.93;3.03;;;18.90;99.90;;;;;;5057225;28;20655;-80
2023/06/05 08:59:32;;;;;;;9.43;3.07;;;19.00;99.90;;;;;;5056283;28;20174;-79
2023/06/05 09:01:57;;;;;;;7.17;3.00;;;19.10;99.90;;;;;;5055190;28;20176;-80
2023/06/05 09:04:24;;;;;;;9.87;3.00;;;19.10;1.00;;;;;;5054981;28;20266;-80
2023/06/05 09:06:53;;;;;;;6.47;3.20;;;19.10;27.50;;;;;;5055618;28;20180;-80
2023/06/05 09:09:19;;;;;;;3.80;2.30;;;19.30;99.90;;;;;;5057006;28;20164;-80
2023/06/05 09:11:45;;;;;;;7.23;3.03;;;19.40;99.90;;;;;;5056539;28;20187;-80
2023/06/05 09:14:10;;;;;;;11.17;3.10;;;19.50;99.90;;;;;;5056032;28;20258;-80
2023/06/05 09:16:38;;;;;;;4.47;2.60;;;19.80;1.00;;;;;;5055162;28;20285;-80
2023/06/05 09:19:04;;;;;;;6.27;2.50;;;19.70;1.00;;;;;;5055184;28;20259;-81
2023/06/05 09:21:31;;;;;;;5.07;2.30;;;19.80;1.00;;;;;;5056469;28;20548;-79
2023/06/05 09:24:21;;;;;;;7.47;2.73;;;19.90;47.40;;;;;;5054423;28;20277;-79
2023/06/05 09:26:57;;;;;;;5.03;2.30;;;20.00;1.00;;;;;;5049337;28;20222;-80
2023/06/05 09:29:24;;;;;;;6.40;2.57;;;20.10;1.00;;;;;;5056547;28;20167;-80
2023/06/05 09:31:51;;;;;;;6.13;2.90;;;20.10;1.00;;;;;;5054753;28;20203;-80
2023/06/05 09:34:23;;;;;;;4.80;2.73;;;20.30;1.00;;;;;;5044546;28;20173;-80
2023/06/05 09:36:48;;;;;;;4.60;2.57;;;20.40;1.00;;;;;;5036566;28;20307;-80
2023/06/05 09:39:15;;;;;;;6.90;2.40;;;20.40;1.00;;;;;;5034880;28;20659;-80
2023/06/05 09:41:49;;;;;;;5.57;2.50;;;20.40;1.00;;;;;;5035086;28;20181;-82
2023/06/05 09:44:15;;;;;;;10.17;3.50;;;20.50;1.00;;;;;;5054457;28;20190;-81
2023/06/05 09:47:01;;;;;;;13.97;3.03;;;20.60;1.00;;;;;;5053912;28;20172;-82
2023/06/05 09:49:32;;;;;;;16.10;3.17;;;20.70;1.00;;;;;;5034604;28;20242;-82
2023/06/05 09:52:00;;;;;;;6.87;2.30;;;20.80;1.00;;;;;;5036438;28;20169;-81
2023/06/05 09:54:27;;;;;;;5.03;2.00;;;20.80;1.00;;;;;;5054528;28;20191;-81
2023/06/05 09:56:58;;;;;;;8.50;2.30;;;20.90;99.90;;;;;;5056041;28;20168;-81
2023/06/05 09:59:28;;;;;;;4.43;2.30;;;20.90;99.90;;;;;;5054501;28;20647;-81
2023/06/05 10:01:55;;;;;;;4.23;2.47;;;21.00;99.90;;;;;;5055678;28;20644;-79
2023/06/05 10:04:26;;;;;;;6.53;2.30;;;21.10;99.90;;;;;;5055296;28;20186;-82
2023/06/05 10:06:57;;;;;;;4.00;2.13;;;21.10;1.00;;;;;;5054905;28;20290;-81
2023/06/05 10:09:25;;;;;;;5.43;2.43;;;21.20;99.90;;;;;;5056140;28;20152;-82
2023/06/05 10:11:51;;;;;;;3.67;2.10;;;21.40;1.00;;;;;;5054194;28;20191;-81
2023/06/05 10:14:19;;;;;;;4.87;2.23;;;21.40;1.00;;;;;;5053592;28;20176;-82
2023/06/05 10:16:50;;;;;;;8.67;1.83;;;21.60;1.00;;;;;;5055671;28;20163;-81
2023/06/05 10:19:20;;;;;;;10.33;2.30;;;21.60;1.00;;;;;;5055301;28;20144;-82
2023/06/05 10:21:49;;;;;;;4.53;2.10;;;21.80;99.90;;;;;;5055994;28;20683;-81
2023/06/05 10:24:25;;;;;;;3.67;2.13;;;21.80;1.00;;;;;;5053279;28;20190;-82
2023/06/05 10:27:16;;;;;;;8.50;2.40;;;21.80;1.00;;;;;;5055780;28;20171;-81
2023/06/05 10:30:23;;;;;;;5.47;2.50;;;21.90;99.90;;;;;;5055446;28;20159;-82
2023/06/05 10:33:01;;;;;;;5.03;2.23;;;21.90;99.90;;;;;;4993802;28;20205;-81
2023/06/05 10:35:50;;;;;;;4.57;2.57;;;22.00;1.00;;;;;;5049016;28;20581;-82
2023/06/05 10:38:23;;;;;;;5.27;2.43;;;22.10;1.00;;;;;;5056426;28;20247;-82
2023/06/05 10:40:53;;;;;;;4.13;2.23;;;22.20;1.00;;;;;;5054749;28;20176;-78
2023/06/05 10:43:33;;;;;;;3.43;2.10;;;22.30;99.90;;;;;;5055990;28;20233;-79
2023/06/05 10:46:01;;;;;;;5.27;2.40;;;22.40;99.90;;;;;;5056350;28;20168;-81
2023/06/05 10:49:07;;;;;;;3.67;2.37;;;22.40;1.00;;;;;;5055509;28;20210;-82
2023/06/05 10:51:46;;;;;;;3.63;2.30;;;22.60;1.00;;;;;;5056344;28;20187;-80
2023/06/05 10:54:34;;;;;;;5.90;2.83;;;22.60;1.00;;;;;;5055801;28;20164;-81
2023/06/05 10:57:02;;;;;;;4.50;2.87;;;22.60;99.90;;;;;;5055535;28;20171;-81
2023/06/05 10:59:32;;;;;;;5.50;2.40;;;22.80;99.90;;;;;;5055861;28;20667;-81
2023/06/05 11:02:10;;;;;;;4.40;2.60;;;22.70;99.90;;;;;;5055591;28;20164;-80
2023/06/05 11:04:47;;;;;;;6.00;2.30;;;22.70;99.90;;;;;;5054301;28;20171;-82
2023/06/05 11:07:23;;;;;;;4.13;2.17;;;22.80;99.90;;;;;;5060746;28;20167;-82
2023/06/05 11:10:15;;;;;;;8.07;2.17;;;22.90;99.90;;;;;;5075650;28;20189;-81
2023/06/05 11:12:41;;;;;;;10.67;3.03;;;22.80;1.00;;;;;;5073044;28;20234;-79
2023/06/05 11:15:14;;;;;;;7.23;2.30;;;22.80;99.90;;;;;;5074934;28;20179;-80
2023/06/05 11:17:44;;;;;;;12.03;2.17;;;22.90;99.90;;;;;;5075512;28;20155;-80
2023/06/05 11:20:26;;;;;;;4.90;1.87;;;23.00;99.90;;;;;;5069716;28;20178;-81
2023/06/05 11:22:52;;;;;;;4.77;2.10;;;23.00;99.90;;;;;;5056268;28;20237;-80
2023/06/05 11:25:18;;;;;;;7.80;2.20;;;23.00;99.90;;;;;;5058273;28;20179;-81
2023/06/05 11:27:51;;;;;;;3.30;2.27;;;23.10;99.90;;;;;;5057727;28;20208;-81
2023/06/05 11:30:22;;;;;;;3.77;2.23;;;23.20;99.90;;;;;;5057067;28;20519;-80
2023/06/05 11:32:50;;;;;;;2.97;1.93;;;23.20;99.90;;;;;;5055520;28;20245;-81
2023/06/05 11:35:16;;;;;;;4.50;2.30;;;23.20;99.90;;;;;;5055981;28;20169;-80
2023/06/05 11:37:41;;;;;;;3.87;2.53;;;23.20;65.30;;;;;;5056938;28;20259;-81
2023/06/05 11:40:11;;;;;;;3.70;1.80;;;23.30;99.90;;;;;;5055343;28;20282;-80
2023/06/05 11:42:38;;;;;;;2.60;1.87;;;23.40;99.90;;;;;;5056578;28;20289;-81
2023/06/05 11:45:13;;;;;;;4.10;2.17;;;23.40;99.90;;;;;;5055649;28;20266;-80
2023/06/05 11:47:39;;;;;;;3.23;1.90;;;23.40;99.90;;;;;;5054805;28;20171;-80
2023/06/05 11:50:17;;;;;;;3.17;1.83;;;23.40;99.90;;;;;;5061263;28;20214;-81
2023/06/05 11:52:43;;;;;;;3.70;2.00;;;23.60;99.90;;;;;;5061693;28;20215;-81
2023/06/05 11:55:14;;;;;;;5.17;1.90;;;23.70;99.90;;;;;;5056262;28;20233;-81
2023/06/05 11:57:46;;;;;;;4.67;1.70;;;23.70;99.90;;;;;;5054680;28;20186;-80
2023/06/05 12:00:13;;;;;;;4.07;1.90;;;23.80;1.00;;;;;;5059042;28;20164;-80
2023/06/05 12:02:41;;;;;;;6.93;1.87;;;23.90;99.90;;;;;;5054628;28;20191;-80
2023/06/05 12:05:07;;;;;;;4.70;2.00;;;23.90;99.90;;;;;;5054809;28;20715;-80
2023/06/05 12:07:36;;;;;;;3.00;1.87;;;24.00;99.90;;;;;;5059606;28;20196;-80
2023/06/05 12:10:07;;;;;;;5.67;2.43;;;24.00;99.90;;;;;;5058173;28;20330;-80
2023/06/05 12:12:34;;;;;;;4.07;2.10;;;23.90;1.00;;;;;;5058486;28;20191;-81
2023/06/05 12:15:16;;;;;;;3.83;1.70;;;24.00;99.90;;;;;;5059617;28;20171;-81
2023/06/05 12:17:59;;;;;;;1.90;1.60;;;24.00;1.00;;;;;;5060480;28;20182;-80
2023/06/05 12:20:26;;;;;;;2.17;1.40;;;24.10;99.90;;;;;;5058113;28;20259;-80
2023/06/05 12:22:52;;;;;;;4.20;1.67;;;24.10;99.90;;;;;;5060403;28;20560;-81
2023/06/05 12:25:18;;;;;;;4.77;1.90;;;24.20;99.90;;;;;;5058947;28;20183;-80
2023/06/05 12:27:47;;;;;;;5.22;1.80;;;24.30;99.90;;;;;;5059517;28;20640;-81
2023/06/05 12:30:14;;;;;;;3.30;1.92;;;24.30;99.90;;;;;;5060785;28;20195;-80
2023/06/05 12:32:39;;;;;;;3.20;1.77;;;24.30;99.90;;;;;;5075189;28;20198;-79
2023/06/05 12:35:17;;;;;;;2.55;2.05;;;24.50;99.90;;;;;;5077743;28;20160;-77
2023/06/05 12:37:45;;;;;;;3.17;1.80;;;24.50;99.90;;;;;;5074299;28;20175;-80
2023/06/05 12:40:11;;;;;;;2.07;1.73;;;24.50;1.00;;;;;;5057542;28;20176;-80
2023/06/05 12:42:39;;;;;;;2.40;1.53;;;24.60;1.00;;;;;;5057208;28;20524;-80
2023/06/05 12:45:06;;;;;;;4.13;1.73;;;24.50;99.90;;;;;;5058905;28;20601;-80
2023/06/05 12:47:32;;;;;;;3.90;1.80;;;24.50;99.90;;;;;;5056992;28;20206;-81
2023/06/05 12:49:58;;;;;;;2.03;1.67;;;24.50;99.90;;;;;;5058641;28;20207;-80
2023/06/05 12:52:27;;;;;;;2.03;1.50;;;24.60;99.90;;;;;;5058162;28;20187;-79
2023/06/05 12:54:56;;;;;;;3.47;1.50;;;24.50;99.90;;;;;;5043868;28;20192;-80